createdAt,value
2017-10-10T00:00:45.151Z,0
2017-10-10T00:01:45.163Z,0
2017-10-10T00:02:45.104Z,0
2017-10-10T00:03:45.152Z,0
2017-10-10T00:04:45.402Z,0
2017-10-10T00:05:45.383Z,0
2017-10-10T00:06:45.030Z,0
2017-10-10T00:07:45.003Z,0
2017-10-10T00:08:44.972Z,0
2017-10-10T00:09:45.303Z,0
2017-10-10T00:10:45.276Z,0
2017-10-10T00:11:45.263Z,0
2017-10-10T00:12:44.573Z,0
2017-10-10T00:13:44.554Z,0
2017-10-10T00:14:44.552Z,0
2017-10-10T00:15:44.532Z,0
2017-10-10T00:16:44.833Z,0
2017-10-10T00:17:44.833Z,0
2017-10-10T00:18:45.146Z,0
2017-10-10T00:19:45.123Z,0
2017-10-10T00:20:44.762Z,0
2017-10-10T00:21:44.740Z,0
2017-10-10T00:22:45.064Z,0
2017-10-10T00:23:45.065Z,0
2017-10-10T00:24:44.993Z,0
2017-10-10T00:25:44.339Z,0
2017-10-10T00:26:44.634Z,0
2017-10-10T00:27:44.313Z,0
2017-10-10T00:28:44.596Z,0
2017-10-10T00:29:44.895Z,0
2017-10-10T00:30:44.882Z,0
2017-10-10T00:31:44.565Z,0
2017-10-10T00:32:44.509Z,0
2017-10-10T00:33:44.513Z,0
2017-10-10T00:34:44.498Z,0
2017-10-10T00:35:44.804Z,0
2017-10-10T00:36:44.116Z,0
2017-10-10T00:37:44.111Z,0
2017-10-10T00:38:44.745Z,0
2017-10-10T00:39:44.696Z,0
2017-10-10T00:40:44.431Z,0
2017-10-10T00:41:44.021Z,0
2017-10-10T00:42:43.994Z,0
2017-10-10T00:43:44.334Z,0
2017-10-10T00:44:44.335Z,0
2017-10-10T00:45:44.614Z,0
2017-10-10T00:46:44.242Z,0
2017-10-10T00:47:44.030Z,0
2017-10-10T00:48:44.648Z,0
2017-10-10T00:49:43.935Z,0
2017-10-10T00:50:44.634Z,0
2017-10-10T00:51:44.583Z,0
2017-10-10T00:52:44.133Z,0
2017-10-10T00:53:44.465Z,0
2017-10-10T00:54:43.890Z,0
2017-10-10T00:55:44.437Z,0
2017-10-10T00:56:43.415Z,0
2017-10-10T00:57:44.467Z,0
2017-10-10T00:58:43.367Z,0
2017-10-10T00:59:44.332Z,0
2017-10-10T01:00:44.421Z,0
2017-10-10T01:01:44.012Z,0
2017-10-10T01:02:43.945Z,0
2017-10-10T01:03:43.979Z,0
2017-10-10T01:04:43.983Z,0
2017-10-10T01:05:44.314Z,0
2017-10-10T01:06:43.962Z,0
2017-10-10T01:07:43.983Z,0
2017-10-10T01:08:43.824Z,0
2017-10-10T01:09:43.854Z,0
2017-10-10T01:10:43.842Z,0
2017-10-10T01:11:43.444Z,0
2017-10-10T01:12:43.482Z,0
2017-10-10T01:13:43.722Z,0
2017-10-10T01:14:43.795Z,0
2017-10-10T01:15:43.683Z,0
2017-10-10T01:16:43.983Z,0
2017-10-10T01:17:43.336Z,0
2017-10-10T01:18:43.647Z,0
2017-10-10T01:19:43.607Z,0
2017-10-10T01:20:44.011Z,0
2017-10-10T01:21:43.880Z,0
2017-10-10T01:22:43.214Z,0
2017-10-10T01:23:43.839Z,0
2017-10-10T01:24:43.614Z,0
2017-10-10T01:25:43.488Z,0
2017-10-10T01:26:43.145Z,0
2017-10-10T01:27:43.434Z,0
2017-10-10T01:28:43.103Z,0
2017-10-10T01:29:43.532Z,0
2017-10-10T01:30:43.076Z,0
2017-10-10T01:31:43.405Z,0
2017-10-10T01:32:43.688Z,0
2017-10-10T01:33:43.329Z,0
2017-10-10T01:34:43.643Z,0
2017-10-10T01:35:43.348Z,0
2017-10-10T01:36:43.280Z,0
2017-10-10T01:37:43.295Z,0
2017-10-10T01:38:43.555Z,0
2017-10-10T01:39:43.344Z,0
2017-10-10T01:40:43.512Z,0
2017-10-10T01:41:43.213Z,0
2017-10-10T01:42:42.826Z,0
2017-10-10T01:43:43.466Z,0
2017-10-10T01:44:43.125Z,0
2017-10-10T01:45:43.459Z,0
2017-10-10T01:46:43.393Z,0
2017-10-10T01:47:43.059Z,0
2017-10-10T01:48:43.356Z,0
2017-10-10T01:49:43.346Z,0
2017-10-10T01:50:43.319Z,0
2017-10-10T01:51:43.289Z,0
2017-10-10T01:52:43.284Z,0
2017-10-10T01:53:43.272Z,0
2017-10-10T01:54:43.247Z,0
2017-10-10T01:55:43.240Z,0
2017-10-10T01:56:43.205Z,0
2017-10-10T01:57:42.586Z,0
2017-10-10T01:58:42.831Z,0
2017-10-10T01:59:43.159Z,0
2017-10-10T02:00:42.464Z,0
2017-10-10T02:01:42.773Z,0
2017-10-10T02:02:43.089Z,0
2017-10-10T02:03:43.074Z,0
2017-10-10T02:04:42.725Z,0
2017-10-10T02:05:43.025Z,0
2017-10-10T02:06:42.030Z,0
2017-10-10T02:07:42.653Z,0
2017-10-10T02:08:42.627Z,0
2017-10-10T02:09:42.626Z,0
2017-10-10T02:10:42.601Z,0
2017-10-10T02:11:42.572Z,0
2017-10-10T02:12:42.883Z,0
2017-10-10T02:13:42.544Z,0
2017-10-10T02:14:42.212Z,0
2017-10-10T02:15:42.181Z,0
2017-10-10T02:16:42.603Z,0
2017-10-10T02:18:02.033Z,0
2017-10-10T02:18:42.793Z,0
2017-10-10T02:19:42.765Z,0
2017-10-10T02:20:42.895Z,0
2017-10-10T02:21:42.723Z,0
2017-10-10T02:22:42.423Z,0
2017-10-10T02:23:42.685Z,0
2017-10-10T02:24:42.649Z,0
2017-10-10T02:25:42.001Z,0
2017-10-10T02:26:44.137Z,0
2017-10-10T02:27:41.959Z,0
2017-10-10T02:28:42.614Z,0
2017-10-10T02:29:42.229Z,0
2017-10-10T02:30:42.664Z,0
2017-10-10T02:31:42.245Z,0
2017-10-10T02:32:42.508Z,0
2017-10-10T02:33:42.157Z,0
2017-10-10T02:34:42.141Z,0
2017-10-10T02:35:41.844Z,0
2017-10-10T02:36:42.106Z,0
2017-10-10T02:37:42.137Z,0
2017-10-10T02:38:42.067Z,0
2017-10-10T02:39:42.164Z,0
2017-10-10T02:40:42.375Z,0
2017-10-10T02:41:42.064Z,0
2017-10-10T02:42:42.071Z,0
2017-10-10T02:43:42.024Z,0
2017-10-10T02:44:41.291Z,0
2017-10-10T02:45:42.249Z,0
2017-10-10T02:46:41.596Z,0
2017-10-10T02:47:42.213Z,0
2017-10-10T02:48:42.163Z,0
2017-10-10T02:49:41.845Z,0
2017-10-10T02:50:41.510Z,0
2017-10-10T02:51:42.136Z,0
2017-10-10T02:52:41.802Z,0
2017-10-10T02:53:42.101Z,0
2017-10-10T02:54:41.092Z,0
2017-10-10T02:55:41.721Z,0
2017-10-10T02:56:42.034Z,0
2017-10-10T02:57:41.838Z,0
2017-10-10T02:58:41.976Z,0
2017-10-10T02:59:41.720Z,0
2017-10-10T03:00:41.942Z,0
2017-10-10T03:01:41.983Z,0
2017-10-10T03:02:41.250Z,0
2017-10-10T03:03:41.242Z,0
2017-10-10T03:04:41.544Z,0
2017-10-10T03:05:41.206Z,0
2017-10-10T03:06:41.873Z,0
2017-10-10T03:07:41.586Z,0
2017-10-10T03:08:41.473Z,0
2017-10-10T03:09:41.779Z,0
2017-10-10T03:10:41.435Z,0
2017-10-10T03:11:41.461Z,0
2017-10-10T03:12:41.392Z,0
2017-10-10T03:13:41.432Z,0
2017-10-10T03:14:41.682Z,0
2017-10-10T03:15:41.708Z,0
2017-10-10T03:16:41.311Z,0
2017-10-10T03:17:41.438Z,0
2017-10-10T03:18:41.607Z,0
2017-10-10T03:19:40.603Z,0
2017-10-10T03:20:41.558Z,0
2017-10-10T03:21:41.210Z,0
2017-10-10T03:22:41.200Z,0
2017-10-10T03:23:41.183Z,0
2017-10-10T03:24:41.143Z,0
2017-10-10T03:25:41.476Z,0
2017-10-10T03:26:41.136Z,0
2017-10-10T03:27:40.768Z,0
2017-10-10T03:28:41.108Z,0
2017-10-10T03:29:40.730Z,0
2017-10-10T03:30:41.369Z,0
2017-10-10T03:31:41.020Z,0
2017-10-10T03:32:41.322Z,0
2017-10-10T03:33:40.672Z,0
2017-10-10T03:34:40.959Z,0
2017-10-10T03:35:40.343Z,0
2017-10-10T03:36:40.941Z,0
2017-10-10T03:37:40.913Z,0
2017-10-10T03:38:41.224Z,0
2017-10-10T03:39:40.573Z,0
2017-10-10T03:40:40.840Z,0
2017-10-10T03:41:40.828Z,0
2017-10-10T03:42:40.801Z,0
2017-10-10T03:43:40.823Z,0
2017-10-10T03:44:40.764Z,0
2017-10-10T03:45:41.073Z,0
2017-10-10T03:46:41.071Z,0
2017-10-10T03:47:41.034Z,0
2017-10-10T03:48:40.380Z,0
2017-10-10T03:49:40.679Z,0
2017-10-10T03:50:40.323Z,0
2017-10-10T03:51:40.633Z,0
2017-10-10T03:52:40.977Z,0
2017-10-10T03:53:40.613Z,0
2017-10-10T03:54:40.914Z,0
2017-10-10T03:55:40.902Z,0
2017-10-10T03:56:40.868Z,0
2017-10-10T03:57:40.544Z,0
2017-10-10T03:58:40.824Z,0
2017-10-10T03:59:40.162Z,0
2017-10-10T04:00:40.543Z,0
2017-10-10T04:01:40.442Z,0
2017-10-10T04:02:40.754Z,0
2017-10-10T04:03:40.754Z,0
2017-10-10T04:04:40.704Z,0
2017-10-10T04:05:40.372Z,0
2017-10-10T04:06:40.387Z,0
2017-10-10T04:07:40.397Z,0
2017-10-10T04:08:40.635Z,0
2017-10-10T04:09:40.611Z,0
2017-10-10T04:10:40.271Z,0
2017-10-10T04:11:40.252Z,0
2017-10-10T04:12:39.901Z,0
2017-10-10T04:13:39.919Z,0
2017-10-10T04:14:40.222Z,0
2017-10-10T04:15:40.219Z,0
2017-10-10T04:16:40.483Z,0
2017-10-10T04:17:40.653Z,0
2017-10-10T04:18:40.193Z,0
2017-10-10T04:19:40.222Z,0
2017-10-10T04:20:40.072Z,0
2017-10-10T04:21:40.065Z,0
2017-10-10T04:22:40.365Z,0
2017-10-10T04:23:40.333Z,0
2017-10-10T04:24:40.330Z,0
2017-10-10T04:25:40.312Z,0
2017-10-10T04:26:39.960Z,0
2017-10-10T04:27:39.291Z,0
2017-10-10T04:28:39.284Z,0
2017-10-10T04:29:39.952Z,0
2017-10-10T04:30:39.944Z,0
2017-10-10T04:31:39.885Z,0
2017-10-10T04:32:40.174Z,0
2017-10-10T04:33:39.829Z,0
2017-10-10T04:34:39.821Z,0
2017-10-10T04:35:39.803Z,0
2017-10-10T04:36:39.763Z,0
2017-10-10T04:37:39.740Z,0
2017-10-10T04:38:39.852Z,0
2017-10-10T04:39:39.833Z,0
2017-10-10T04:40:40.026Z,0
2017-10-10T04:41:39.343Z,0
2017-10-10T04:42:39.663Z,0
2017-10-10T04:43:40.016Z,0
2017-10-10T04:44:39.927Z,0
2017-10-10T04:45:39.595Z,0
2017-10-10T04:46:39.593Z,0
2017-10-10T04:47:39.574Z,0
2017-10-10T04:48:39.866Z,0
2017-10-10T04:49:39.876Z,0
2017-10-10T04:50:39.493Z,0
2017-10-10T04:51:39.166Z,0
2017-10-10T04:52:39.142Z,0
2017-10-10T04:53:39.438Z,0
2017-10-10T04:54:39.765Z,0
2017-10-10T04:55:39.726Z,0
2017-10-10T04:56:39.722Z,0
2017-10-10T04:57:39.695Z,0
2017-10-10T04:58:39.032Z,0
2017-10-10T04:59:39.346Z,0
2017-10-10T05:00:39.303Z,0
2017-10-10T05:01:39.604Z,0
2017-10-10T05:02:39.594Z,0
2017-10-10T05:03:38.920Z,0
2017-10-10T05:04:38.902Z,0
2017-10-10T05:05:38.900Z,0
2017-10-10T05:06:39.512Z,0
2017-10-10T05:07:38.535Z,0
2017-10-10T05:08:39.483Z,0
2017-10-10T05:09:39.130Z,0
2017-10-10T05:10:39.113Z,0
2017-10-10T05:11:39.092Z,0
2017-10-10T05:12:39.392Z,0
2017-10-10T05:13:39.373Z,0
2017-10-10T05:14:38.723Z,0
2017-10-10T05:15:39.032Z,0
2017-10-10T05:16:38.347Z,0
2017-10-10T05:17:39.028Z,0
2017-10-10T05:18:39.283Z,0
2017-10-10T05:19:38.930Z,0
2017-10-10T05:20:39.253Z,0
2017-10-10T05:21:38.894Z,4
2017-10-10T05:22:38.872Z,4
2017-10-10T05:23:38.533Z,4
2017-10-10T05:24:39.172Z,4
2017-10-10T05:25:38.836Z,4
2017-10-10T05:26:38.812Z,0
2017-10-10T05:27:39.112Z,0
2017-10-10T05:28:39.096Z,0
2017-10-10T05:29:38.480Z,4
2017-10-10T05:30:38.762Z,4
2017-10-10T05:31:38.164Z,4
2017-10-10T05:32:38.688Z,4
2017-10-10T05:33:38.685Z,4
2017-10-10T05:34:38.688Z,4
2017-10-10T05:35:38.633Z,4
2017-10-10T05:36:38.614Z,8
2017-10-10T05:37:38.912Z,8
2017-10-10T05:38:38.573Z,12
2017-10-10T05:39:38.583Z,8
2017-10-10T05:40:38.586Z,8
2017-10-10T05:41:38.523Z,8
2017-10-10T05:42:38.512Z,8
2017-10-10T05:43:38.810Z,12
2017-10-10T05:44:38.490Z,12
2017-10-10T05:45:38.183Z,8
2017-10-10T05:46:38.432Z,12
2017-10-10T05:47:38.444Z,16
2017-10-10T05:48:38.394Z,16
2017-10-10T05:49:38.719Z,20
2017-10-10T05:50:38.373Z,24
2017-10-10T05:51:38.432Z,28
2017-10-10T05:52:38.633Z,28
2017-10-10T05:53:38.772Z,24
2017-10-10T05:54:38.585Z,24
2017-10-10T05:55:38.267Z,24
2017-10-10T05:56:38.561Z,28
2017-10-10T05:57:38.524Z,28
2017-10-10T05:58:38.533Z,28
2017-10-10T05:59:38.493Z,28
2017-10-10T06:00:38.143Z,28
2017-10-10T06:01:38.455Z,28
2017-10-10T06:02:38.465Z,32
2017-10-10T06:03:38.164Z,40
2017-10-10T06:04:37.789Z,40
2017-10-10T06:05:38.376Z,36
2017-10-10T06:06:38.083Z,40
2017-10-10T06:07:38.349Z,36
2017-10-10T06:08:38.329Z,40
2017-10-10T06:09:38.290Z,36
2017-10-10T06:10:38.042Z,44
2017-10-10T06:11:38.002Z,52
2017-10-10T06:12:38.251Z,44
2017-10-10T06:13:37.889Z,48
2017-10-10T06:14:37.884Z,52
2017-10-10T06:15:38.187Z,52
2017-10-10T06:16:38.183Z,52
2017-10-10T06:17:37.502Z,60
2017-10-10T06:18:37.486Z,60
2017-10-10T06:19:37.802Z,64
2017-10-10T06:20:38.102Z,64
2017-10-10T06:21:38.200Z,68
2017-10-10T06:22:37.724Z,68
2017-10-10T06:23:38.022Z,68
2017-10-10T06:24:38.028Z,76
2017-10-10T06:25:37.343Z,100
2017-10-10T06:26:37.635Z,116
2017-10-10T06:27:37.945Z,120
2017-10-10T06:28:37.286Z,128
2017-10-10T06:29:37.902Z,140
2017-10-10T06:30:37.254Z,152
2017-10-10T06:31:37.863Z,140
2017-10-10T06:32:37.202Z,144
2017-10-10T06:33:37.183Z,160
2017-10-10T06:34:37.813Z,196
2017-10-10T06:35:37.471Z,224
2017-10-10T06:36:37.772Z,236
2017-10-10T06:37:37.832Z,224
2017-10-10T06:38:37.433Z,216
2017-10-10T06:39:37.752Z,188
2017-10-10T06:40:37.712Z,216
2017-10-10T06:41:37.038Z,216
2017-10-10T06:42:37.345Z,216
2017-10-10T06:43:37.660Z,192
2017-10-10T06:44:37.291Z,188
2017-10-10T06:45:37.299Z,200
2017-10-10T06:46:37.253Z,196
2017-10-10T06:47:36.589Z,184
2017-10-10T06:48:37.212Z,192
2017-10-10T06:49:37.312Z,196
2017-10-10T06:50:37.192Z,212
2017-10-10T06:51:37.492Z,212
2017-10-10T06:52:37.151Z,192
2017-10-10T06:53:36.502Z,192
2017-10-10T06:54:36.783Z,192
2017-10-10T06:55:36.815Z,184
2017-10-10T06:56:37.062Z,168
2017-10-10T06:57:37.061Z,152
2017-10-10T06:58:37.345Z,152
2017-10-10T06:59:36.705Z,148
2017-10-10T07:00:37.003Z,156
2017-10-10T07:01:36.983Z,164
2017-10-10T07:02:36.957Z,164
2017-10-10T07:03:37.253Z,180
2017-10-10T07:04:36.932Z,204
2017-10-10T07:05:36.569Z,244
2017-10-10T07:06:37.202Z,264
2017-10-10T07:07:36.874Z,316
2017-10-10T07:08:36.192Z,320
2017-10-10T07:09:36.817Z,360
2017-10-10T07:10:37.122Z,400
2017-10-10T07:11:37.131Z,436
2017-10-10T07:12:36.779Z,508
2017-10-10T07:13:37.073Z,588
2017-10-10T07:14:37.047Z,644
2017-10-10T07:15:36.700Z,640
2017-10-10T07:16:36.366Z,548
2017-10-10T07:17:36.672Z,460
2017-10-10T07:18:36.330Z,428
2017-10-10T07:19:36.310Z,452
2017-10-10T07:20:36.934Z,432
2017-10-10T07:21:36.911Z,496
2017-10-10T07:22:36.885Z,616
2017-10-10T07:23:36.892Z,672
2017-10-10T07:24:36.559Z,728
2017-10-10T07:25:36.833Z,716
2017-10-10T07:26:36.552Z,804
2017-10-10T07:27:36.213Z,696
2017-10-10T07:28:36.800Z,632
2017-10-10T07:29:36.112Z,620
2017-10-10T07:30:36.742Z,624
2017-10-10T07:31:36.075Z,616
2017-10-10T07:32:36.055Z,676
2017-10-10T07:33:36.816Z,652
2017-10-10T07:34:36.344Z,680
2017-10-10T07:35:36.021Z,704
2017-10-10T07:36:36.323Z,780
2017-10-10T07:37:36.615Z,812
2017-10-10T07:38:36.586Z,748
2017-10-10T07:39:36.604Z,648
2017-10-10T07:40:36.234Z,652
2017-10-10T07:41:36.540Z,660
2017-10-10T07:42:36.198Z,640
2017-10-10T07:43:36.176Z,632
2017-10-10T07:44:36.155Z,572
2017-10-10T07:45:36.150Z,544
2017-10-10T07:46:36.449Z,576
2017-10-10T07:47:36.097Z,512
2017-10-10T07:48:36.394Z,560
2017-10-10T07:49:36.107Z,736
2017-10-10T07:50:36.069Z,968
2017-10-10T07:51:36.342Z,1000
2017-10-10T07:52:36.015Z,968
2017-10-10T07:53:35.334Z,976
2017-10-10T07:54:35.983Z,832
2017-10-10T07:55:35.968Z,920
2017-10-10T07:56:35.931Z,860
2017-10-10T07:57:36.304Z,784
2017-10-10T07:58:35.883Z,716
2017-10-10T07:59:36.201Z,572
2017-10-10T08:00:35.854Z,532
2017-10-10T08:01:36.155Z,584
2017-10-10T08:02:36.141Z,664
2017-10-10T08:03:36.143Z,780
2017-10-10T08:04:36.097Z,960
2017-10-10T08:05:36.074Z,964
2017-10-10T08:06:36.072Z,984
2017-10-10T08:07:36.054Z,1168
2017-10-10T08:08:36.037Z,1060
2017-10-10T08:09:36.043Z,916
2017-10-10T08:10:35.972Z,836
2017-10-10T08:11:35.976Z,868
2017-10-10T08:12:35.964Z,1012
2017-10-10T08:13:35.952Z,776
2017-10-10T08:14:35.910Z,960
2017-10-10T08:15:35.895Z,1124
2017-10-10T08:16:35.544Z,1288
2017-10-10T08:17:35.536Z,1020
2017-10-10T08:18:35.851Z,880
2017-10-10T08:19:35.162Z,944
2017-10-10T08:20:35.469Z,836
2017-10-10T08:21:35.453Z,744
2017-10-10T08:22:35.453Z,736
2017-10-10T08:23:35.412Z,580
2017-10-10T08:24:35.403Z,676
2017-10-10T08:25:35.721Z,800
2017-10-10T08:26:35.682Z,856
2017-10-10T08:27:35.023Z,876
2017-10-10T08:28:35.341Z,776
2017-10-10T08:29:35.644Z,740
2017-10-10T08:30:35.622Z,884
2017-10-10T08:31:35.276Z,832
2017-10-10T08:32:35.570Z,672
2017-10-10T08:33:35.543Z,516
2017-10-10T08:34:34.894Z,500
2017-10-10T08:35:35.523Z,484
2017-10-10T08:36:35.489Z,524
2017-10-10T08:37:34.925Z,588
2017-10-10T08:38:34.816Z,736
2017-10-10T08:39:35.450Z,880
2017-10-10T08:40:35.114Z,828
2017-10-10T08:41:35.075Z,656
2017-10-10T08:42:35.086Z,704
2017-10-10T08:43:35.369Z,880
2017-10-10T08:44:35.036Z,1076
2017-10-10T08:45:35.360Z,1040
2017-10-10T08:46:35.024Z,972
2017-10-10T08:47:35.313Z,760
2017-10-10T08:48:34.623Z,640
2017-10-10T08:49:35.403Z,712
2017-10-10T08:50:34.260Z,748
2017-10-10T08:51:34.918Z,996
2017-10-10T08:52:34.553Z,1116
2017-10-10T08:53:34.571Z,1012
2017-10-10T08:54:34.842Z,1368
2017-10-10T08:55:35.182Z,1596
2017-10-10T08:56:34.899Z,1544
2017-10-10T08:57:35.122Z,1196
2017-10-10T08:58:35.219Z,1452
2017-10-10T08:59:35.094Z,1932
2017-10-10T09:00:35.184Z,2284
2017-10-10T09:01:34.703Z,2716
2017-10-10T09:02:34.712Z,2752
2017-10-10T09:03:34.706Z,2980
2017-10-10T09:04:35.093Z,2832
2017-10-10T09:05:34.745Z,2896
2017-10-10T09:06:34.645Z,2980
2017-10-10T09:07:34.946Z,2832
2017-10-10T09:08:35.031Z,2868
2017-10-10T09:09:34.954Z,3300
2017-10-10T09:10:35.006Z,3548
2017-10-10T09:11:34.604Z,3492
2017-10-10T09:12:34.854Z,3416
2017-10-10T09:13:34.850Z,4248
2017-10-10T09:14:34.480Z,4680
2017-10-10T09:15:34.904Z,5052
2017-10-10T09:16:34.769Z,4508
2017-10-10T09:17:34.862Z,3960
2017-10-10T09:18:34.416Z,3880
2017-10-10T09:19:34.713Z,3692
2017-10-10T09:20:34.695Z,3980
2017-10-10T09:21:34.796Z,4108
2017-10-10T09:22:34.678Z,4480
2017-10-10T09:23:33.991Z,4144
2017-10-10T09:24:34.748Z,3700
2017-10-10T09:25:34.606Z,3376
2017-10-10T09:26:34.681Z,3888
2017-10-10T09:27:34.245Z,4164
2017-10-10T09:28:34.226Z,3588
2017-10-10T09:29:34.204Z,3436
2017-10-10T09:30:34.182Z,4988
2017-10-10T09:31:34.495Z,4988
2017-10-10T09:32:34.150Z,4524
2017-10-10T09:33:34.192Z,3988
2017-10-10T09:34:34.134Z,4276
2017-10-10T09:35:33.454Z,3900
2017-10-10T09:36:34.073Z,3756
2017-10-10T09:37:34.081Z,3952
2017-10-10T09:38:33.727Z,4168
2017-10-10T09:39:34.072Z,4292
2017-10-10T09:40:33.695Z,4268
2017-10-10T09:41:34.030Z,4680
2017-10-10T09:42:34.372Z,4444
2017-10-10T09:43:33.645Z,4328
2017-10-10T09:44:34.337Z,3896
2017-10-10T09:45:33.982Z,3308
2017-10-10T09:46:33.593Z,3096
2017-10-10T09:47:33.564Z,2760
2017-10-10T09:48:33.534Z,2752
2017-10-10T09:49:33.531Z,3272
2017-10-10T09:50:33.822Z,3340
2017-10-10T09:51:33.804Z,3048
2017-10-10T09:52:33.803Z,2656
2017-10-10T09:53:34.102Z,2308
2017-10-10T09:54:33.459Z,1880
2017-10-10T09:55:33.740Z,1552
2017-10-10T09:56:34.085Z,1268
2017-10-10T09:57:33.396Z,1140
2017-10-10T09:58:33.686Z,1512
2017-10-10T09:59:33.679Z,2116
2017-10-10T10:00:33.013Z,2804
2017-10-10T10:01:33.645Z,2716
2017-10-10T10:02:33.996Z,1952
2017-10-10T10:03:33.655Z,1776
2017-10-10T10:04:33.584Z,1668
2017-10-10T10:05:33.588Z,1708
2017-10-10T10:06:33.555Z,2112
2017-10-10T10:07:33.581Z,2624
2017-10-10T10:08:33.844Z,2604
2017-10-10T10:09:33.499Z,3148
2017-10-10T10:10:33.492Z,4444
2017-10-10T10:11:33.486Z,5572
2017-10-10T10:12:33.769Z,5604
2017-10-10T10:13:33.827Z,4684
2017-10-10T10:14:33.734Z,5268
2017-10-10T10:15:33.722Z,6704
2017-10-10T10:16:33.734Z,6696
2017-10-10T10:17:33.408Z,6236
2017-10-10T10:18:33.653Z,7604
2017-10-10T10:19:33.684Z,8656
2017-10-10T10:20:33.713Z,11992
2017-10-10T10:21:33.706Z,12324
2017-10-10T10:22:33.614Z,10764
2017-10-10T10:23:33.703Z,8148
2017-10-10T10:24:33.724Z,6348
2017-10-10T10:25:33.302Z,6384
2017-10-10T10:26:33.591Z,7868
2017-10-10T10:27:33.172Z,9060
2017-10-10T10:28:33.173Z,9980
2017-10-10T10:29:33.201Z,9400
2017-10-10T10:30:33.521Z,9180
2017-10-10T10:31:33.112Z,9980
2017-10-10T10:32:33.436Z,10280
2017-10-10T10:33:33.071Z,10272
2017-10-10T10:34:33.476Z,14008
2017-10-10T10:35:33.072Z,12540
2017-10-10T10:36:33.365Z,9820
2017-10-10T10:37:33.043Z,7960
2017-10-10T10:38:33.002Z,6580
2017-10-10T10:39:32.733Z,5120
2017-10-10T10:40:33.360Z,5156
2017-10-10T10:41:33.314Z,5600
2017-10-10T10:42:33.262Z,5940
2017-10-10T10:43:33.243Z,5464
2017-10-10T10:44:32.912Z,4580
2017-10-10T10:45:32.563Z,3952
2017-10-10T10:46:32.231Z,3616
2017-10-10T10:47:33.202Z,3704
2017-10-10T10:48:32.862Z,3552
2017-10-10T10:49:33.155Z,3716
2017-10-10T10:50:32.812Z,4220
2017-10-10T10:51:33.252Z,4264
2017-10-10T10:52:33.113Z,4304
2017-10-10T10:53:33.092Z,4500
2017-10-10T10:54:33.066Z,4852
2017-10-10T10:55:33.143Z,4648
2017-10-10T10:56:33.078Z,4196
2017-10-10T10:57:32.372Z,3324
2017-10-10T10:58:32.683Z,3280
2017-10-10T10:59:32.003Z,2824
2017-10-10T11:00:32.682Z,2480
2017-10-10T11:01:32.622Z,2536
2017-10-10T11:02:32.280Z,2976
2017-10-10T11:03:32.383Z,2852
2017-10-10T11:04:32.560Z,2956
2017-10-10T11:05:32.912Z,2964
2017-10-10T11:06:32.540Z,3780
2017-10-10T11:07:32.551Z,3692
2017-10-10T11:08:32.510Z,3128
2017-10-10T11:09:32.259Z,3388
2017-10-10T11:10:32.145Z,3660
2017-10-10T11:11:32.852Z,3436
2017-10-10T11:12:32.451Z,3588
2017-10-10T11:13:32.772Z,4372
2017-10-10T11:14:32.742Z,9064
2017-10-10T11:15:32.073Z,6836
2017-10-10T11:16:31.728Z,5564
2017-10-10T11:17:32.684Z,6140
2017-10-10T11:18:32.330Z,15712
2017-10-10T11:19:32.644Z,8720
2017-10-10T11:20:32.001Z,10304
2017-10-10T11:21:31.967Z,7896
2017-10-10T11:22:32.602Z,7380
2017-10-10T11:23:32.253Z,6628
2017-10-10T11:24:32.262Z,5972
2017-10-10T11:25:32.216Z,5924
2017-10-10T11:26:32.518Z,5292
2017-10-10T11:27:32.541Z,5096
2017-10-10T11:28:32.173Z,5020
2017-10-10T11:29:32.191Z,5288
2017-10-10T11:30:31.820Z,4588
2017-10-10T11:31:32.472Z,4176
2017-10-10T11:32:31.799Z,4196
2017-10-10T11:33:32.421Z,4808
2017-10-10T11:34:31.416Z,4536
2017-10-10T11:35:32.053Z,3476
2017-10-10T11:36:32.381Z,2696
2017-10-10T11:37:31.376Z,2400
2017-10-10T11:38:32.002Z,2656
2017-10-10T11:39:32.312Z,2232
2017-10-10T11:40:32.301Z,2560
2017-10-10T11:41:32.282Z,4396
2017-10-10T11:42:32.282Z,5248
2017-10-10T11:43:32.273Z,4672
2017-10-10T11:44:32.252Z,3940
2017-10-10T11:45:32.241Z,4356
2017-10-10T11:46:32.174Z,4428
2017-10-10T11:47:31.861Z,4224
2017-10-10T11:48:31.844Z,4184
2017-10-10T11:49:31.840Z,4056
2017-10-10T11:50:32.162Z,3148
2017-10-10T11:51:32.132Z,2696
2017-10-10T11:52:31.782Z,3068
2017-10-10T11:53:32.101Z,3036
2017-10-10T11:54:32.074Z,2528
2017-10-10T11:55:31.753Z,2704
2017-10-10T11:56:31.398Z,3344
2017-10-10T11:57:31.690Z,3864
2017-10-10T11:58:32.034Z,3740
2017-10-10T11:59:32.010Z,3548
2017-10-10T12:00:31.656Z,4568
2017-10-10T12:01:31.622Z,5012
2017-10-10T12:02:31.953Z,4288
2017-10-10T12:03:31.925Z,3936
2017-10-10T12:04:31.906Z,4064
2017-10-10T12:05:31.555Z,4552
2017-10-10T12:06:31.881Z,5408
2017-10-10T12:07:31.541Z,6176
2017-10-10T12:08:31.850Z,7296
2017-10-10T12:09:31.522Z,6824
2017-10-10T12:10:31.814Z,6136
2017-10-10T12:11:31.460Z,5468
2017-10-10T12:12:31.464Z,5192
2017-10-10T12:13:31.100Z,5068
2017-10-10T12:14:31.721Z,5444
2017-10-10T12:15:31.389Z,5112
2017-10-10T12:16:31.391Z,4656
2017-10-10T12:17:31.409Z,4108
2017-10-10T12:18:31.343Z,3380
2017-10-10T12:19:31.658Z,2940
2017-10-10T12:20:31.313Z,2604
2017-10-10T12:21:31.303Z,2648
2017-10-10T12:22:31.407Z,2580
2017-10-10T12:23:31.571Z,2540
2017-10-10T12:24:31.575Z,2520
2017-10-10T12:25:31.622Z,2516
2017-10-10T12:26:31.549Z,2852
2017-10-10T12:27:30.900Z,2788
2017-10-10T12:28:31.531Z,2584
2017-10-10T12:29:31.644Z,2552
2017-10-10T12:30:31.177Z,2396
2017-10-10T12:31:31.445Z,2212
2017-10-10T12:32:31.459Z,2096
2017-10-10T12:33:31.531Z,2028
2017-10-10T12:34:31.092Z,1992
2017-10-10T12:35:31.446Z,1996
2017-10-10T12:36:31.391Z,1956
2017-10-10T12:37:31.050Z,1944
2017-10-10T12:38:31.419Z,2060
2017-10-10T12:39:31.374Z,2192
2017-10-10T12:40:31.105Z,2268
2017-10-10T12:41:31.316Z,2296
2017-10-10T12:42:30.966Z,2200
2017-10-10T12:43:31.286Z,2124
2017-10-10T12:44:31.334Z,2152
2017-10-10T12:45:31.360Z,2180
2017-10-10T12:46:31.302Z,2160
2017-10-10T12:47:31.335Z,2132
2017-10-10T12:48:31.180Z,2188
2017-10-10T12:49:30.503Z,2172
2017-10-10T12:50:31.153Z,2160
2017-10-10T12:51:31.121Z,2192
2017-10-10T12:52:30.765Z,2176
2017-10-10T12:53:30.513Z,2156
2017-10-10T12:54:31.102Z,2240
2017-10-10T12:55:30.734Z,2284
2017-10-10T12:56:30.704Z,2252
2017-10-10T12:57:30.700Z,2260
2017-10-10T12:58:31.015Z,2100
2017-10-10T12:59:31.063Z,1972
2017-10-10T13:00:30.708Z,1988
2017-10-10T13:01:30.663Z,2144
2017-10-10T13:02:30.984Z,2268
2017-10-10T13:03:30.926Z,2316
2017-10-10T13:04:30.900Z,2196
2017-10-10T13:05:30.892Z,2068
2017-10-10T13:06:30.554Z,1988
2017-10-10T13:07:30.544Z,1896
2017-10-10T13:08:30.830Z,1836
2017-10-10T13:09:30.860Z,1924
2017-10-10T13:10:30.464Z,2164
2017-10-10T13:11:30.781Z,2260
2017-10-10T13:12:30.756Z,2300
2017-10-10T13:13:30.441Z,2380
2017-10-10T13:14:30.804Z,2356
2017-10-10T13:15:30.773Z,2320
2017-10-10T13:16:30.047Z,2036
2017-10-10T13:17:30.694Z,1940
2017-10-10T13:18:30.697Z,1992
2017-10-10T13:19:30.673Z,2188
2017-10-10T13:20:30.613Z,2348
2017-10-10T13:21:30.622Z,2380
2017-10-10T13:22:30.265Z,2368
2017-10-10T13:23:30.252Z,2448
2017-10-10T13:24:30.577Z,2548
2017-10-10T13:25:30.228Z,2572
2017-10-10T13:26:30.535Z,2544
2017-10-10T13:27:29.862Z,2400
2017-10-10T13:28:30.163Z,2244
2017-10-10T13:29:30.172Z,2212
2017-10-10T13:30:30.452Z,2232
2017-10-10T13:31:29.792Z,2292
2017-10-10T13:32:30.094Z,2272
2017-10-10T13:33:30.084Z,2152
2017-10-10T13:34:30.075Z,2136
2017-10-10T13:35:30.365Z,2144
2017-10-10T13:36:30.353Z,2092
2017-10-10T13:37:30.365Z,2064
2017-10-10T13:38:30.392Z,2016
2017-10-10T13:39:30.294Z,1960
2017-10-10T13:40:30.341Z,1876
2017-10-10T13:41:30.273Z,1800
2017-10-10T13:42:29.937Z,1748
2017-10-10T13:43:30.243Z,1544
2017-10-10T13:44:30.259Z,1220
2017-10-10T13:45:29.893Z,1004
2017-10-10T13:46:30.192Z,872
2017-10-10T13:47:30.162Z,1208
2017-10-10T13:48:30.236Z,1184
2017-10-10T13:49:30.143Z,1080
2017-10-10T13:50:30.121Z,1408
2017-10-10T13:51:29.795Z,1480
2017-10-10T13:52:29.783Z,1536
2017-10-10T13:53:30.072Z,1612
2017-10-10T13:54:30.050Z,1652
2017-10-10T13:55:30.064Z,1824
2017-10-10T13:56:30.002Z,2112
2017-10-10T13:57:29.699Z,2364
2017-10-10T13:58:29.333Z,2436
2017-10-10T13:59:29.989Z,2244